Time;durP1;ratioP1;P1;durP2;ratioP2;P2;SDS_P1;SDS_P2;PMS_P1;PMS_P2;Temp;Humidity;BMP_temperature;BMP_pressure;BME280_temperature;BME280_humidity;BME280_pressure;Samples;Min_cycle;Max_cycle;Signal;HPM_P1;HPM_P2
2023/09/01 00:00:22;;;;;;;7.07;2.60;;;16.30;99.90;;;;;;5128847;27;20047;-81
2023/09/01 00:02:49;;;;;;;5.93;2.97;;;16.20;99.90;;;;;;5112427;27;20035;-81
2023/09/01 00:05:14;;;;;;;6.18;2.63;;;16.20;99.90;;;;;;5077300;28;20050;-80
2023/09/01 00:07:40;;;;;;;6.40;2.70;;;16.20;99.90;;;;;;5088405;28;20035;-80
2023/09/01 00:10:06;;;;;;;4.65;2.78;;;16.30;99.90;;;;;;5105811;27;20040;-81
2023/09/01 00:12:32;;;;;;;6.00;2.88;;;16.20;99.90;;;;;;5093634;27;20031;-79
2023/09/01 00:14:58;;;;;;;5.10;2.53;;;16.20;99.90;;;;;;5113819;27;20113;-81
2023/09/01 00:17:23;;;;;;;3.20;2.20;;;16.20;99.90;;;;;;5092158;28;20577;-79
2023/09/01 00:19:49;;;;;;;4.28;2.55;;;16.20;99.90;;;;;;5086439;27;20042;-81
2023/09/01 00:22:15;;;;;;;3.88;2.80;;;16.30;99.90;;;;;;5109106;28;20124;-82
2023/09/01 00:24:40;;;;;;;4.50;2.58;;;16.40;99.90;;;;;;5095695;27;20030;-81
2023/09/01 00:27:09;;;;;;;4.57;2.90;;;16.40;99.90;;;;;;5093169;28;20101;-79
2023/09/01 00:29:35;;;;;;;4.82;2.92;;;16.40;99.90;;;;;;5093442;28;20040;-80
2023/09/01 00:32:01;;;;;;;5.15;2.85;;;16.30;99.90;;;;;;5089430;28;20039;-79
2023/09/01 00:34:30;;;;;;;4.82;3.10;;;16.40;99.90;;;;;;5091331;28;20399;-79
2023/09/01 00:36:56;;;;;;;4.95;2.92;;;16.30;99.90;;;;;;5114277;27;20126;-82
2023/09/01 00:39:22;;;;;;;5.95;3.47;;;16.30;99.90;;;;;;5095016;27;20118;-78
2023/09/01 00:41:47;;;;;;;5.60;3.20;;;16.30;99.90;;;;;;5110102;27;20054;-78
2023/09/01 00:44:14;;;;;;;5.07;3.17;;;16.30;99.90;;;;;;5095794;27;20665;-82
2023/09/01 00:46:43;;;;;;;6.38;3.25;;;16.40;99.90;;;;;;5129032;27;20039;-83
2023/09/01 00:49:13;;;;;;;7.00;3.05;;;16.30;99.90;;;;;;5080537;27;20082;-80
2023/09/01 00:51:39;;;;;;;4.18;2.72;;;16.40;99.90;;;;;;5130212;27;20047;-81
2023/09/01 00:54:05;;;;;;;4.72;2.85;;;16.30;99.90;;;;;;5112528;27;20035;-81
2023/09/01 00:56:31;;;;;;;6.65;2.65;;;16.30;99.90;;;;;;5113140;27;20031;-80
2023/09/01 00:58:59;;;;;;;5.55;2.75;;;16.30;99.90;;;;;;5113554;27;20061;-79
2023/09/01 01:01:25;;;;;;;5.03;2.75;;;16.20;99.90;;;;;;5079430;27;20118;-82
2023/09/01 01:03:52;;;;;;;5.22;2.92;;;16.20;99.90;;;;;;5125673;27;20096;-79
2023/09/01 01:06:32;;;;;;;4.72;2.55;;;16.20;99.90;;;;;;5090716;27;20054;-81
2023/09/01 01:09:33;;;;;;;4.53;2.40;;;16.20;99.90;;;;;;5111156;27;20521;-80
2023/09/01 01:12:08;;;;;;;5.50;2.50;;;16.10;99.90;;;;;;5098951;28;20150;-81
2023/09/01 01:14:48;;;;;;;6.95;2.40;;;16.10;99.90;;;;;;5128195;27;20034;-81
2023/09/01 01:17:19;;;;;;;4.95;2.97;;;16.20;99.90;;;;;;5109845;27;20039;-82
2023/09/01 01:19:50;;;;;;;4.47;2.97;;;16.10;99.90;;;;;;5092121;27;20554;-80
2023/09/01 01:22:41;;;;;;;7.43;2.83;;;16.10;99.90;;;;;;5105203;27;20046;-81
2023/09/01 01:25:13;;;;;;;4.35;2.70;;;16.10;99.90;;;;;;5089725;27;20176;-81
2023/09/01 01:27:41;;;;;;;6.00;2.50;;;16.00;99.90;;;;;;5091341;27;20035;-79
2023/09/01 01:30:09;;;;;;;5.88;2.90;;;16.00;99.90;;;;;;5108734;27;20043;-80
2023/09/01 01:32:38;;;;;;;5.38;2.47;;;15.90;99.90;;;;;;5119126;27;20031;-82
2023/09/01 01:35:14;;;;;;;7.03;2.92;;;15.80;99.90;;;;;;5109178;27;20102;-83
2023/09/01 01:37:54;;;;;;;5.20;2.58;;;15.80;99.90;;;;;;5103149;27;20126;-82
2023/09/01 01:40:22;;;;;;;5.32;2.78;;;15.80;99.90;;;;;;5120636;27;20071;-82
2023/09/01 01:42:50;;;;;;;4.63;2.50;;;15.70;99.90;;;;;;5124157;27;20058;-81
2023/09/01 01:45:20;;;;;;;3.58;2.60;;;15.80;99.90;;;;;;5109312;27;20054;-83
2023/09/01 01:47:48;;;;;;;5.05;2.78;;;15.60;99.90;;;;;;5106121;27;20066;-82
2023/09/01 01:50:14;;;;;;;6.60;3.30;;;15.70;99.90;;;;;;5105176;27;20043;-81
2023/09/01 01:52:42;;;;;;;5.03;2.88;;;15.80;99.90;;;;;;5105713;27;20041;-81
2023/09/01 01:55:08;;;;;;;5.00;2.53;;;15.70;99.90;;;;;;5122267;27;20473;-82
2023/09/01 01:57:37;;;;;;;7.70;3.25;;;15.80;99.90;;;;;;5106297;27;20541;-78
2023/09/01 02:00:11;;;;;;;6.30;2.72;;;15.70;99.90;;;;;;5106796;27;20683;-79
2023/09/01 02:02:40;;;;;;;6.53;3.00;;;15.70;99.90;;;;;;5105350;27;20467;-80
2023/09/01 02:05:07;;;;;;;6.57;2.60;;;15.60;99.90;;;;;;5123820;27;20096;-79
2023/09/01 02:07:33;;;;;;;4.10;3.40;;;15.60;99.90;;;;;;5100102;27;20498;-84
2023/09/01 02:09:59;;;;;;;5.90;3.28;;;15.60;99.90;;;;;;5107788;27;20035;-81
2023/09/01 02:12:25;;;;;;;5.28;3.22;;;15.60;99.90;;;;;;5085934;27;20055;-79
2023/09/01 02:14:51;;;;;;;6.60;3.33;;;15.60;99.90;;;;;;5103290;27;20035;-79
2023/09/01 02:17:16;;;;;;;5.90;3.20;;;15.60;99.90;;;;;;5106544;27;20047;-79
2023/09/01 02:19:42;;;;;;;5.22;3.00;;;15.60;99.90;;;;;;5088109;27;20039;-79
2023/09/01 02:22:08;;;;;;;5.55;2.97;;;15.60;99.90;;;;;;5119921;27;20039;-79
2023/09/01 02:24:33;;;;;;;5.75;3.20;;;15.60;99.90;;;;;;5122797;27;20139;-77
2023/09/01 02:26:59;;;;;;;4.57;3.10;;;15.60;99.90;;;;;;5121962;27;20039;-79
2023/09/01 02:29:26;;;;;;;4.88;3.17;;;15.60;99.90;;;;;;5092944;27;20080;-80
2023/09/01 02:31:53;;;;;;;4.18;3.08;;;15.60;99.90;;;;;;5110794;27;20108;-79
2023/09/01 02:34:19;;;;;;;4.30;3.20;;;15.60;99.90;;;;;;5110809;27;20058;-81
2023/09/01 02:36:45;;;;;;;6.97;3.70;;;15.70;99.90;;;;;;5111201;27;20031;-80
2023/09/01 02:39:11;;;;;;;4.75;3.38;;;15.80;99.90;;;;;;5111709;27;20039;-80
2023/09/01 02:41:37;;;;;;;5.95;3.28;;;15.80;99.90;;;;;;5091526;28;20116;-80
2023/09/01 02:44:04;;;;;;;5.32;3.20;;;15.80;99.90;;;;;;5128184;27;20042;-82
2023/09/01 02:46:30;;;;;;;3.78;3.20;;;15.70;99.90;;;;;;5110614;27;20043;-80
2023/09/01 02:48:55;;;;;;;5.97;3.25;;;15.70;99.90;;;;;;5097135;28;20058;-82
2023/09/01 02:51:21;;;;;;;5.70;3.20;;;15.80;99.90;;;;;;5109417;28;20039;-84
2023/09/01 02:53:47;;;;;;;4.40;2.80;;;15.70;99.90;;;;;;5111051;28;20167;-84
2023/09/01 02:56:13;;;;;;;4.15;2.95;;;15.70;99.90;;;;;;5093903;28;20035;-81
2023/09/01 02:58:39;;;;;;;5.32;3.15;;;15.70;99.90;;;;;;5110857;27;20038;-81
2023/09/01 03:01:07;;;;;;;6.35;3.30;;;15.70;99.90;;;;;;5114012;27;20045;-81
2023/09/01 03:03:34;;;;;;;6.43;3.10;;;15.60;99.90;;;;;;5114702;27;20027;-82
2023/09/01 03:06:00;;;;;;;6.90;2.95;;;15.70;99.90;;;;;;5130965;27;20095;-81
2023/09/01 03:08:26;;;;;;;4.18;2.97;;;15.70;99.90;;;;;;5076312;28;20043;-81
2023/09/01 03:10:52;;;;;;;6.82;3.20;;;15.70;99.90;;;;;;5096353;27;20134;-80
2023/09/01 03:13:19;;;;;;;8.60;3.55;;;15.70;99.90;;;;;;5113274;27;20035;-80
2023/09/01 03:15:45;;;;;;;5.20;2.83;;;15.70;99.90;;;;;;5125903;27;20078;-80
2023/09/01 03:18:11;;;;;;;5.88;3.00;;;15.80;99.90;;;;;;5131544;27;20034;-81
2023/09/01 03:20:41;;;;;;;4.97;3.03;;;15.80;99.90;;;;;;5114423;27;20047;-81
2023/09/01 03:23:06;;;;;;;5.45;2.97;;;15.80;99.90;;;;;;5128001;27;20122;-81
2023/09/01 03:25:32;;;;;;;3.92;2.80;;;15.70;99.90;;;;;;5097019;27;20624;-80
2023/09/01 03:27:58;;;;;;;7.10;3.38;;;15.80;99.90;;;;;;5128538;27;20158;-81
2023/09/01 03:30:23;;;;;;;6.22;2.95;;;15.70;99.90;;;;;;5098039;27;20161;-80
2023/09/01 03:32:49;;;;;;;5.13;3.28;;;15.80;99.90;;;;;;5111901;27;20412;-80
2023/09/01 03:35:15;;;;;;;5.70;3.30;;;15.70;99.90;;;;;;5098084;27;20527;-80
2023/09/01 03:37:41;;;;;;;6.72;3.72;;;15.70;99.90;;;;;;5095857;27;20038;-83
2023/09/01 03:40:10;;;;;;;5.70;3.83;;;15.70;99.90;;;;;;5097965;27;20046;-80
2023/09/01 03:42:36;;;;;;;7.13;3.92;;;15.70;99.90;;;;;;5112773;27;20079;-80
2023/09/01 03:45:03;;;;;;;5.80;3.42;;;15.70;99.90;;;;;;5115039;27;20065;-79
2023/09/01 03:47:28;;;;;;;5.20;3.08;;;15.70;99.90;;;;;;5130553;27;20050;-81
2023/09/01 03:49:54;;;;;;;3.88;3.10;;;15.70;99.90;;;;;;5089459;27;21085;-79
2023/09/01 03:52:20;;;;;;;5.20;3.05;;;15.70;99.90;;;;;;5109721;27;20409;-81
2023/09/01 03:54:45;;;;;;;3.90;2.90;;;15.70;99.90;;;;;;5096663;27;20031;-81
2023/09/01 03:57:11;;;;;;;5.60;3.22;;;15.60;99.90;;;;;;5087988;27;20122;-82
2023/09/01 03:59:37;;;;;;;5.93;3.38;;;15.60;99.90;;;;;;5100559;27;20058;-79
2023/09/01 04:02:06;;;;;;;5.00;3.20;;;15.60;99.90;;;;;;5083034;27;20058;-80
2023/09/01 04:04:32;;;;;;;6.90;3.47;;;15.60;99.90;;;;;;5116452;27;20087;-81
2023/09/01 04:06:57;;;;;;;5.60;3.75;;;15.60;99.90;;;;;;5116611;27;20046;-80
2023/09/01 04:09:23;;;;;;;10.50;3.80;;;15.60;99.90;;;;;;5100027;27;20122;-80
2023/09/01 04:11:49;;;;;;;11.10;4.47;;;15.60;99.90;;;;;;5099548;27;20074;-79
2023/09/01 04:14:14;;;;;;;7.63;3.90;;;15.70;99.90;;;;;;5098538;27;20578;-81
2023/09/01 04:16:40;;;;;;;4.95;3.47;;;15.60;99.90;;;;;;5116471;27;20042;-82
2023/09/01 04:19:06;;;;;;;4.18;3.00;;;15.60;99.90;;;;;;5115508;27;20039;-80
2023/09/01 04:21:32;;;;;;;6.60;3.92;;;15.70;99.90;;;;;;5133467;27;20041;-81
2023/09/01 04:23:58;;;;;;;3.97;3.28;;;15.60;99.90;;;;;;5113559;27;20091;-78
2023/09/01 04:26:24;;;;;;;4.38;3.03;;;15.60;99.90;;;;;;5133193;27;20045;-82
2023/09/01 04:28:50;;;;;;;4.78;3.13;;;15.60;99.90;;;;;;5091371;27;20118;-82
2023/09/01 04:31:25;;;;;;;5.47;3.60;;;15.60;99.90;;;;;;5117104;27;20087;-80
2023/09/01 04:33:50;;;;;;;5.22;3.45;;;15.60;99.90;;;;;;5132665;27;20039;-84
2023/09/01 04:36:16;;;;;;;5.00;4.10;;;15.60;99.90;;;;;;5105703;27;20046;-81
2023/09/01 04:38:42;;;;;;;6.63;3.50;;;15.60;99.90;;;;;;5079778;27;20043;-81
2023/09/01 04:41:08;;;;;;;4.13;3.28;;;15.60;99.90;;;;;;5096570;27;20425;-82
2023/09/01 04:43:34;;;;;;;7.70;3.42;;;15.60;99.90;;;;;;5112574;27;20039;-81
2023/09/01 04:45:59;;;;;;;7.03;3.70;;;15.60;99.90;;;;;;5129205;27;20712;-79
2023/09/01 04:48:26;;;;;;;5.32;3.33;;;15.60;99.90;;;;;;5133549;27;20069;-80
2023/09/01 04:50:52;;;;;;;5.20;2.97;;;15.60;99.90;;;;;;5133218;27;20099;-82
2023/09/01 04:53:18;;;;;;;6.38;3.50;;;15.60;99.90;;;;;;5100136;27;20035;-81
2023/09/01 04:55:44;;;;;;;6.45;3.83;;;15.50;99.90;;;;;;5113853;27;20039;-80
2023/09/01 04:58:10;;;;;;;5.03;3.33;;;15.60;99.90;;;;;;5134301;27;20046;-81
2023/09/01 05:00:36;;;;;;;3.92;3.25;;;15.50;99.90;;;;;;5096330;27;20051;-81
2023/09/01 05:03:02;;;;;;;5.60;3.47;;;15.60;99.90;;;;;;5094733;27;20394;-80
2023/09/01 05:05:27;;;;;;;10.65;6.18;;;15.60;99.90;;;;;;5087384;28;20044;-80
2023/09/01 05:07:53;;;;;;;12.40;7.88;;;15.60;99.90;;;;;;5109355;28;20047;-81
2023/09/01 05:10:19;;;;;;;11.88;9.23;;;15.80;99.90;;;;;;5109122;28;20122;-80
2023/09/01 05:12:45;;;;;;;13.63;10.30;;;15.70;99.90;;;;;;5108975;28;20032;-81
2023/09/01 05:15:12;;;;;;;14.52;11.25;;;15.70;99.90;;;;;;5112002;27;20046;-84
2023/09/01 05:17:38;;;;;;;13.95;12.45;;;15.70;99.90;;;;;;5112950;27;20042;-81
2023/09/01 05:20:07;;;;;;;21.52;14.82;;;15.80;99.90;;;;;;5091730;28;20047;-82
2023/09/01 05:22:34;;;;;;;18.10;13.15;;;15.80;99.90;;;;;;5110149;27;20096;-83
2023/09/01 05:25:00;;;;;;;15.00;12.50;;;16.00;99.90;;;;;;5108531;28;20031;-83
2023/09/01 05:27:26;;;;;;;13.90;12.25;;;15.90;99.90;;;;;;5126743;27;20043;-80
2023/09/01 05:29:52;;;;;;;18.55;12.05;;;16.00;99.90;;;;;;5089486;27;20046;-81
2023/09/01 05:32:19;;;;;;;18.67;10.95;;;16.10;99.90;;;;;;5125063;27;20035;-80
2023/09/01 05:34:45;;;;;;;11.95;8.57;;;16.10;99.90;;;;;;5092177;27;20062;-81
2023/09/01 05:37:12;;;;;;;10.20;7.22;;;16.10;99.90;;;;;;5085387;27;20065;-80
2023/09/01 05:39:38;;;;;;;8.65;7.15;;;16.20;99.90;;;;;;5104382;27;20077;-80
2023/09/01 05:42:04;;;;;;;7.15;6.35;;;16.10;99.90;;;;;;5089020;27;20035;-79
2023/09/01 05:44:31;;;;;;;10.70;5.65;;;16.30;99.90;;;;;;5108101;27;20046;-81
2023/09/01 05:46:57;;;;;;;11.55;6.10;;;16.30;99.90;;;;;;5103500;27;20051;-80
2023/09/01 05:49:26;;;;;;;10.10;5.38;;;16.40;99.90;;;;;;5106060;27;20118;-81
2023/09/01 05:51:52;;;;;;;10.60;5.30;;;16.50;99.90;;;;;;5123937;27;20039;-81
2023/09/01 05:54:18;;;;;;;6.80;5.38;;;16.50;99.90;;;;;;5118859;27;20042;-79
2023/09/01 05:56:44;;;;;;;8.63;4.65;;;16.70;99.90;;;;;;5088699;27;20093;-81
2023/09/01 05:59:10;;;;;;;7.32;5.10;;;16.70;99.90;;;;;;5123834;27;20111;-81
2023/09/01 06:01:36;;;;;;;7.40;6.03;;;16.80;99.90;;;;;;5126450;27;20121;-80
2023/09/01 06:04:05;;;;;;;6.18;5.50;;;16.70;99.90;;;;;;5081549;27;20039;-80
2023/09/01 06:06:32;;;;;;;9.60;6.00;;;16.80;99.90;;;;;;5089284;28;20047;-78
2023/09/01 06:08:59;;;;;;;6.95;5.85;;;16.60;99.90;;;;;;5089607;27;20689;-80
2023/09/01 06:11:25;;;;;;;7.63;5.80;;;16.70;99.90;;;;;;5094863;27;20043;-81
2023/09/01 06:13:51;;;;;;;8.50;4.65;;;16.90;99.90;;;;;;5089725;27;20051;-80
2023/09/01 06:16:17;;;;;;;6.70;4.78;;;16.90;99.90;;;;;;5109754;27;20035;-80
2023/09/01 06:18:43;;;;;;;7.07;4.47;;;17.00;99.90;;;;;;5125870;27;20031;-80
2023/09/01 06:21:10;;;;;;;6.47;4.60;;;17.10;99.90;;;;;;5091064;28;20043;-80
2023/09/01 06:23:44;;;;;;;7.20;3.83;;;17.20;99.90;;;;;;5107770;27;20054;-80
2023/09/01 06:26:13;;;;;;;6.43;3.80;;;17.20;99.90;;;;;;5090988;28;20047;-80
2023/09/01 06:28:43;;;;;;;4.65;3.22;;;17.20;99.90;;;;;;5107107;27;20184;-79
2023/09/01 06:31:09;;;;;;;4.97;2.90;;;17.40;99.90;;;;;;5126788;27;20038;-80
2023/09/01 06:33:44;;;;;;;4.07;2.60;;;17.40;99.90;;;;;;5111974;27;20035;-80
2023/09/01 06:36:13;;;;;;;5.82;3.38;;;17.40;99.90;;;;;;5129210;27;20095;-80
2023/09/01 06:38:42;;;;;;;3.78;2.60;;;17.60;99.90;;;;;;5108877;27;20031;-80
2023/09/01 06:41:08;;;;;;;3.47;2.65;;;17.70;99.90;;;;;;5089043;28;20181;-80
2023/09/01 06:43:34;;;;;;;3.25;2.38;;;17.70;99.90;;;;;;5101690;28;20046;-80
2023/09/01 06:46:00;;;;;;;4.95;2.72;;;17.70;99.90;;;;;;5109801;28;20043;-80
2023/09/01 06:48:26;;;;;;;2.85;2.45;;;17.80;99.90;;;;;;5092730;27;20043;-80
2023/09/01 06:50:52;;;;;;;5.28;2.75;;;17.80;99.90;;;;;;5089349;28;20495;-81
2023/09/01 06:53:17;;;;;;;5.22;2.40;;;17.90;99.90;;;;;;5084841;28;20039;-81
2023/09/01 06:55:49;;;;;;;4.95;2.47;;;17.90;99.90;;;;;;5110610;28;20031;-80
2023/09/01 06:58:14;;;;;;;4.95;2.75;;;18.00;99.90;;;;;;5111882;28;20031;-80
2023/09/01 07:00:40;;;;;;;5.50;2.90;;;18.10;99.90;;;;;;5075092;28;20061;-80
2023/09/01 07:03:06;;;;;;;4.35;2.80;;;18.30;99.90;;;;;;5094227;28;20046;-79
2023/09/01 07:05:32;;;;;;;4.28;3.15;;;18.30;99.90;;;;;;5110530;28;20568;-80
2023/09/01 07:07:57;;;;;;;6.60;3.78;;;18.30;99.90;;;;;;5076681;28;20043;-81
2023/09/01 07:10:23;;;;;;;4.30;3.42;;;18.40;99.90;;;;;;5125650;28;20047;-81
2023/09/01 07:12:49;;;;;;;6.63;2.85;;;18.50;99.90;;;;;;5107013;28;20042;-81
2023/09/01 07:15:15;;;;;;;7.03;3.10;;;18.40;99.90;;;;;;5091000;28;20143;-80
2023/09/01 07:17:40;;;;;;;4.65;2.60;;;18.50;99.90;;;;;;5110460;28;20082;-79
2023/09/01 07:20:07;;;;;;;7.47;3.42;;;18.40;99.90;;;;;;5125568;27;20050;-80
2023/09/01 07:22:33;;;;;;;6.65;3.78;;;18.70;99.90;;;;;;5110051;28;20050;-80
2023/09/01 07:24:59;;;;;;;4.82;3.17;;;18.70;99.90;;;;;;5092952;28;20047;-80
2023/09/01 07:27:25;;;;;;;7.18;3.42;;;18.90;99.90;;;;;;5111119;28;20039;-80
2023/09/01 07:29:50;;;;;;;5.53;3.00;;;18.70;99.90;;;;;;5088940;28;20779;-80
2023/09/01 07:32:17;;;;;;;4.15;2.60;;;18.90;99.90;;;;;;5102578;28;20046;-80
2023/09/01 07:34:43;;;;;;;3.00;2.30;;;18.90;99.90;;;;;;5073536;28;20070;-80
2023/09/01 07:37:09;;;;;;;4.00;2.15;;;19.10;99.90;;;;;;5106328;28;20049;-81
2023/09/01 07:39:35;;;;;;;3.88;2.10;;;19.10;99.90;;;;;;5110263;28;20447;-80
2023/09/01 07:42:04;;;;;;;3.65;2.20;;;19.20;99.90;;;;;;5090384;28;20070;-81
2023/09/01 07:44:30;;;;;;;3.15;1.80;;;19.20;99.90;;;;;;5110475;28;20038;-80
2023/09/01 07:46:55;;;;;;;3.65;1.90;;;19.30;99.90;;;;;;5123506;28;20476;-80
2023/09/01 07:49:21;;;;;;;3.70;1.85;;;19.50;99.90;;;;;;5125139;28;20036;-80
2023/09/01 07:51:48;;;;;;;3.55;2.20;;;19.50;99.90;;;;;;5109818;28;20039;-80
2023/09/01 07:54:13;;;;;;;2.60;1.67;;;19.60;99.90;;;;;;5094577;28;20043;-82
2023/09/01 07:56:39;;;;;;;2.20;1.80;;;19.50;99.90;;;;;;5092527;28;20046;-81
2023/09/01 07:59:05;;;;;;;3.35;1.70;;;19.60;99.90;;;;;;5087234;27;20056;-80
2023/09/01 08:01:31;;;;;;;3.97;1.88;;;19.60;99.90;;;;;;5113718;27;20042;-81
2023/09/01 08:04:00;;;;;;;4.65;1.90;;;19.70;99.90;;;;;;5128847;27;20061;-82
2023/09/01 08:06:31;;;;;;;3.92;1.95;;;19.70;99.90;;;;;;5105576;27;20047;-81
2023/09/01 08:08:57;;;;;;;4.03;2.00;;;19.80;99.90;;;;;;5110354;27;20047;-80
2023/09/01 08:11:23;;;;;;;3.30;1.80;;;20.00;99.90;;;;;;5109167;28;20042;-81
2023/09/01 08:13:49;;;;;;;3.88;1.40;;;19.90;99.90;;;;;;5100042;27;20069;-81
2023/09/01 08:16:16;;;;;;;6.65;1.52;;;20.00;99.90;;;;;;5092503;28;20049;-81
2023/09/01 08:18:42;;;;;;;2.90;1.80;;;20.20;99.90;;;;;;5082466;28;20042;-81
2023/09/01 08:21:08;;;;;;;34.63;3.17;;;20.30;99.90;;;;;;5120771;27;20118;-81
2023/09/01 08:23:34;;;;;;;5.68;1.60;;;20.30;99.90;;;;;;5093665;28;20047;-81
2023/09/01 08:26:04;;;;;;;4.13;1.50;;;20.40;99.90;;;;;;5094701;27;20088;-81
2023/09/01 08:28:31;;;;;;;2.90;1.85;;;20.50;99.90;;;;;;5129464;27;20041;-81
2023/09/01 08:31:01;;;;;;;3.03;1.70;;;20.60;99.90;;;;;;5129792;27;20421;-81
2023/09/01 08:33:27;;;;;;;3.00;1.60;;;20.60;99.90;;;;;;5113323;27;20047;-81
2023/09/01 08:35:53;;;;;;;2.33;1.50;;;20.70;99.90;;;;;;5109367;27;20031;-82
2023/09/01 08:38:18;;;;;;;2.95;1.67;;;20.80;99.90;;;;;;5078075;27;20035;-81
2023/09/01 08:40:44;;;;;;;3.72;1.70;;;20.80;99.90;;;;;;5096027;27;20066;-81
2023/09/01 08:43:11;;;;;;;3.92;1.85;;;20.80;99.90;;;;;;5112178;27;20043;-82
2023/09/01 08:45:38;;;;;;;2.95;1.40;;;20.90;99.90;;;;;;5128272;27;20062;-79
2023/09/01 08:48:04;;;;;;;4.72;1.40;;;21.00;99.90;;;;;;5092203;28;20071;-82
2023/09/01 08:50:30;;;;;;;2.90;1.35;;;21.10;99.90;;;;;;5093306;28;20047;-82
2023/09/01 08:52:58;;;;;;;3.95;1.50;;;21.20;99.90;;;;;;5103482;27;20032;-80
2023/09/01 08:55:24;;;;;;;3.70;1.67;;;21.20;99.90;;;;;;5092950;28;20464;-81
2023/09/01 08:57:50;;;;;;;2.55;1.50;;;21.20;99.90;;;;;;5106446;28;20036;-80
2023/09/01 09:00:16;;;;;;;4.60;1.27;;;21.20;99.90;;;;;;5086997;28;20060;-81
2023/09/01 09:02:43;;;;;;;3.95;1.80;;;21.20;99.90;;;;;;5100479;28;20111;-82
2023/09/01 09:05:14;;;;;;;3.70;1.60;;;21.20;99.90;;;;;;5076606;28;20066;-81
2023/09/01 09:07:41;;;;;;;4.15;1.90;;;21.20;99.90;;;;;;5091623;28;20379;-82
2023/09/01 09:10:07;;;;;;;3.92;1.85;;;21.40;99.90;;;;;;5092323;28;20048;-82
2023/09/01 09:12:41;;;;;;;2.97;1.50;;;21.50;99.90;;;;;;5071445;28;20040;-81
2023/09/01 09:15:07;;;;;;;6.47;2.20;;;21.60;99.90;;;;;;5071047;28;20127;-82
2023/09/01 09:17:48;;;;;;;8.20;2.03;;;21.60;99.90;;;;;;5079615;28;20476;-81
2023/09/01 09:20:18;;;;;;;2.75;1.40;;;21.60;99.90;;;;;;5091227;28;20043;-83
2023/09/01 09:22:59;;;;;;;3.80;1.40;;;21.60;99.90;;;;;;5090394;28;20070;-82
2023/09/01 09:25:30;;;;;;;4.78;1.40;;;21.70;99.90;;;;;;5091395;28;20049;-79
2023/09/01 09:27:58;;;;;;;3.33;1.38;;;21.70;99.90;;;;;;5090434;28;20146;-82
2023/09/01 09:30:27;;;;;;;3.47;1.52;;;21.70;99.90;;;;;;5092122;28;20047;-82
2023/09/01 09:33:03;;;;;;;5.55;1.80;;;21.80;99.90;;;;;;5109618;28;20043;-81
2023/09/01 09:35:33;;;;;;;2.60;1.40;;;21.80;99.90;;;;;;5076600;28;20036;-81
2023/09/01 09:37:59;;;;;;;3.67;1.50;;;21.90;99.90;;;;;;5090173;28;20039;-82
2023/09/01 09:40:26;;;;;;;4.63;1.90;;;21.80;99.90;;;;;;5075320;28;20075;-81
2023/09/01 09:42:51;;;;;;;4.47;1.52;;;21.90;99.90;;;;;;5109904;28;20361;-82
2023/09/01 09:45:20;;;;;;;3.42;1.50;;;22.00;99.90;;;;;;5092642;28;20043;-81
2023/09/01 09:47:48;;;;;;;4.25;1.80;;;22.10;99.90;;;;;;5091317;28;20526;-81
2023/09/01 09:50:16;;;;;;;2.45;1.55;;;22.10;99.90;;;;;;5091144;28;20477;-82
2023/09/01 09:52:47;;;;;;;2.80;1.70;;;22.10;99.90;;;;;;5109474;28;20646;-83
2023/09/01 09:55:18;;;;;;;2.83;1.38;;;22.10;99.90;;;;;;5075754;28;20100;-81
2023/09/01 09:57:48;;;;;;;5.05;1.80;;;22.10;99.90;;;;;;5109223;28;20050;-83
2023/09/01 10:00:14;;;;;;;3.95;1.60;;;22.30;99.90;;;;;;5100618;27;20054;-80
2023/09/01 10:02:47;;;;;;;3.97;1.70;;;22.20;99.90;;;;;;5095318;27;20387;-80
2023/09/01 10:05:15;;;;;;;7.40;1.90;;;22.20;99.90;;;;;;5112413;27;20753;-82
2023/09/01 10:07:42;;;;;;;4.07;1.77;;;22.30;99.90;;;;;;5129678;27;20035;-82
2023/09/01 10:10:09;;;;;;;1.83;1.52;;;22.30;99.90;;;;;;5082051;28;20093;-83
2023/09/01 10:12:37;;;;;;;3.97;1.75;;;22.30;99.90;;;;;;5088579;28;20043;-81
2023/09/01 10:15:03;;;;;;;2.55;1.45;;;22.30;99.90;;;;;;5097876;27;20050;-84
2023/09/01 10:17:33;;;;;;;4.85;1.40;;;22.30;99.90;;;;;;5113409;27;20027;-82
2023/09/01 10:20:00;;;;;;;3.00;1.48;;;22.40;99.90;;;;;;5126592;27;20031;-84
2023/09/01 10:22:26;;;;;;;2.47;1.23;;;22.50;99.90;;;;;;5102283;27;20046;-82
2023/09/01 10:25:15;;;;;;;3.30;1.90;;;22.40;99.90;;;;;;5113114;27;20043;-82
2023/09/01 10:28:08;;;;;;;1.92;1.42;;;22.50;99.90;;;;;;5114169;27;20046;-84
2023/09/01 10:30:45;;;;;;;3.50;1.60;;;22.50;99.90;;;;;;5110363;27;20044;-83
2023/09/01 10:33:27;;;;;;;3.13;1.63;;;22.70;99.90;;;;;;5112750;27;20035;-82
2023/09/01 10:35:55;;;;;;;4.93;1.90;;;22.90;99.90;;;;;;5112744;27;20079;-83
2023/09/01 10:38:37;;;;;;;5.85;1.80;;;23.10;99.90;;;;;;5129965;27;20654;-83
2023/09/01 10:41:09;;;;;;;2.90;1.73;;;23.40;99.90;;;;;;5111573;27;20043;-83
2023/09/01 10:43:41;;;;;;;4.28;2.40;;;23.20;99.90;;;;;;5126232;27;20376;-83
2023/09/01 10:46:16;;;;;;;3.60;1.88;;;23.40;99.90;;;;;;5112476;27;20039;-84
2023/09/01 10:48:53;;;;;;;3.63;1.58;;;23.40;99.90;;;;;;5113280;28;20130;-82
2023/09/01 10:51:20;;;;;;;3.63;1.60;;;23.40;99.90;;;;;;5127163;27;20039;-84
2023/09/01 10:53:46;;;;;;;4.57;1.75;;;23.60;99.90;;;;;;5129779;27;20039;-84
2023/09/01 10:56:14;;;;;;;3.33;1.60;;;23.60;99.90;;;;;;5129082;28;20084;-82
2023/09/01 10:58:47;;;;;;;4.55;1.40;;;23.60;99.90;;;;;;5112673;28;20035;-84
2023/09/01 11:01:32;;;;;;;3.40;1.65;;;23.80;99.90;;;;;;5094592;28;20051;-84
2023/09/01 11:04:28;;;;;;;3.92;1.35;;;23.90;99.90;;;;;;5130036;28;20047;-84
2023/09/01 11:07:00;;;;;;;3.67;1.50;;;24.20;99.90;;;;;;5083767;28;20055;-83
2023/09/01 11:09:35;;;;;;;4.30;2.25;;;24.30;99.90;;;;;;5112139;28;20562;-82
2023/09/01 11:12:05;;;;;;;2.00;1.80;;;24.10;99.90;;;;;;5109758;28;20039;-83
2023/09/01 11:14:34;;;;;;;2.00;1.52;;;23.90;99.90;;;;;;5111912;28;20041;-83
2023/09/01 11:17:03;;;;;;;2.15;1.55;;;24.10;99.90;;;;;;5112867;28;20043;-83
2023/09/01 11:19:33;;;;;;;3.55;1.70;;;24.30;99.90;;;;;;5112136;28;20042;-83
2023/09/01 11:22:00;;;;;;;2.92;1.48;;;24.20;99.90;;;;;;5112807;28;20045;-84
2023/09/01 11:24:26;;;;;;;4.15;1.77;;;24.50;99.90;;;;;;5095011;28;20079;-84
2023/09/01 11:26:56;;;;;;;2.55;1.50;;;24.60;99.90;;;;;;5112559;28;20090;-83
2023/09/01 11:29:21;;;;;;;3.78;1.55;;;24.60;99.90;;;;;;5094589;28;20035;-81
2023/09/01 11:31:48;;;;;;;5.47;1.70;;;24.60;99.90;;;;;;5110890;28;20092;-81
2023/09/01 11:34:15;;;;;;;3.55;2.03;;;24.40;99.90;;;;;;5111519;27;20039;-80
2023/09/01 11:36:45;;;;;;;3.35;1.70;;;24.40;99.90;;;;;;5115689;27;20150;-81
2023/09/01 11:39:11;;;;;;;2.58;1.80;;;24.10;99.90;;;;;;5115130;27;20066;-81
2023/09/01 11:41:41;;;;;;;3.17;1.70;;;24.30;99.90;;;;;;5115527;27;20378;-80
2023/09/01 11:44:07;;;;;;;4.70;1.60;;;24.60;99.90;;;;;;5111653;27;20047;-81
2023/09/01 11:46:37;;;;;;;3.58;1.67;;;24.80;99.90;;;;;;5098042;27;20394;-80
2023/09/01 11:49:04;;;;;;;5.35;1.70;;;24.90;99.90;;;;;;5132436;27;20045;-80
2023/09/01 11:51:37;;;;;;;2.05;1.52;;;24.90;99.90;;;;;;5114591;27;20035;-84
2023/09/01 11:54:04;;;;;;;4.45;1.40;;;24.50;99.90;;;;;;5130255;27;20081;-83
2023/09/01 11:56:30;;;;;;;3.17;1.38;;;24.70;99.90;;;;;;5098340;27;20044;-81
2023/09/01 11:58:58;;;;;;;4.25;1.60;;;24.60;99.90;;;;;;5114660;27;20039;-81
2023/09/01 12:01:41;;;;;;;4.25;2.10;;;24.80;99.90;;;;;;5097407;27;20464;-80
2023/09/01 12:04:09;;;;;;;5.28;1.63;;;24.90;99.90;;;;;;5130584;27;20047;-82
2023/09/01 12:06:44;;;;;;;5.57;1.80;;;24.90;99.90;;;;;;5114545;27;20126;-83
2023/09/01 12:09:11;;;;;;;4.38;1.80;;;24.60;99.90;;;;;;5114597;27;20035;-81
2023/09/01 12:11:55;;;;;;;6.07;2.10;;;24.60;99.90;;;;;;5083211;28;20491;-81
2023/09/01 12:14:26;;;;;;;3.65;2.03;;;24.80;99.90;;;;;;5108928;27;20035;-81
2023/09/01 12:16:53;;;;;;;3.15;1.77;;;24.70;99.90;;;;;;5131814;27;20042;-81
2023/09/01 12:19:23;;;;;;;2.95;1.90;;;24.80;99.90;;;;;;5098381;27;20122;-82
2023/09/01 12:21:50;;;;;;;2.70;2.20;;;24.90;99.90;;;;;;5115291;27;20031;-83
2023/09/01 12:24:16;;;;;;;4.68;1.75;;;24.80;99.90;;;;;;5113222;27;20426;-82
2023/09/01 12:26:41;;;;;;;3.22;2.03;;;25.00;99.90;;;;;;5115344;27;20096;-83
2023/09/01 12:29:07;;;;;;;4.43;1.80;;;25.10;99.90;;;;;;5097754;27;20055;-81
2023/09/01 12:31:33;;;;;;;4.63;2.92;;;24.80;99.90;;;;;;5131543;27;20475;-82
2023/09/01 12:33:59;;;;;;;4.40;2.38;;;24.80;99.90;;;;;;5097887;27;20096;-83
2023/09/01 12:36:24;;;;;;;4.78;2.78;;;24.70;99.90;;;;;;5114309;27;20043;-83
2023/09/01 12:38:50;;;;;;;5.43;2.33;;;24.70;99.90;;;;;;5115297;27;20038;-83
2023/09/01 12:41:16;;;;;;;3.30;2.30;;;24.40;99.90;;;;;;5114639;27;20830;-83
2023/09/01 12:43:43;;;;;;;3.38;2.22;;;24.60;99.90;;;;;;5115507;27;20078;-83
2023/09/01 12:46:09;;;;;;;4.57;2.30;;;24.40;99.90;;;;;;5111379;27;20039;-83
2023/09/01 12:48:35;;;;;;;5.63;2.95;;;24.40;99.90;;;;;;5114788;27;20043;-82